createdAt,value
2022-08-05T00:01:28.321Z,24.31
2022-08-05T00:03:57.148Z,24.25
2022-08-05T00:06:32.477Z,24.18
2022-08-05T00:09:01.025Z,24.10
2022-08-05T00:11:30.687Z,24.01
2022-08-05T00:14:02.423Z,23.91
2022-08-05T00:16:52.712Z,23.83
2022-08-05T00:19:22.271Z,23.76
2022-08-05T00:21:50.259Z,23.68
2022-08-05T00:24:24.151Z,23.64
2022-08-05T00:26:52.188Z,23.60
2022-08-05T00:29:22.747Z,23.57
2022-08-05T00:32:10.543Z,23.53
2022-08-05T00:35:05.476Z,23.49
2022-08-05T00:37:51.190Z,23.47
2022-08-05T00:40:26.652Z,23.44
2022-08-05T00:42:58.911Z,23.39
2022-08-05T00:45:38.144Z,23.37
2022-08-05T00:48:10.287Z,23.35
2022-08-05T00:50:37.928Z,23.34
2022-08-05T00:53:09.938Z,23.29
2022-08-05T00:55:51.618Z,23.27
2022-08-05T00:58:19.046Z,23.23
2022-08-05T01:00:47.752Z,23.18
2022-08-05T01:03:22.973Z,23.13
2022-08-05T01:05:50.205Z,23.07
2022-08-05T01:08:41.989Z,23.09
2022-08-05T01:11:11.275Z,23.01
2022-08-05T01:13:57.942Z,22.96
2022-08-05T01:16:52.254Z,22.88
2022-08-05T01:19:21.717Z,22.87
2022-08-05T01:22:18.793Z,22.79
2022-08-05T01:24:50.821Z,22.77
2022-08-05T01:27:54.994Z,22.68
2022-08-05T01:30:34.470Z,22.64
2022-08-05T01:33:06.128Z,22.57
2022-08-05T01:35:51.111Z,22.51
2022-08-05T01:38:27.621Z,22.54
2022-08-05T01:41:01.381Z,22.50
2022-08-05T01:43:29.869Z,22.48
2022-08-05T01:45:57.833Z,22.44
2022-08-05T01:48:31.543Z,22.39
2022-08-05T01:51:00.043Z,22.40
2022-08-05T01:53:57.213Z,22.38
2022-08-05T01:58:09.489Z,22.35
2022-08-05T01:59:20.668Z,22.33
2022-08-05T02:01:49.871Z,22.32
2022-08-05T02:04:20.127Z,22.29
2022-08-05T02:06:48.046Z,22.28
2022-08-05T02:09:16.369Z,22.25
2022-08-05T02:11:59.014Z,22.18
2022-08-05T02:14:32.295Z,22.19
2022-08-05T02:17:29.827Z,22.16
2022-08-05T02:20:02.137Z,22.16
2022-08-05T02:22:33.217Z,22.15
2022-08-05T02:25:12.704Z,22.11
2022-08-05T02:27:59.725Z,22.12
2022-08-05T02:30:54.215Z,22.08
2022-08-05T02:33:24.514Z,22.10
2022-08-05T02:36:03.741Z,22.07
2022-08-05T02:38:35.009Z,22.07
2022-08-05T02:41:14.657Z,22.06
2022-08-05T02:44:02.533Z,22.06
2022-08-05T02:46:33.802Z,22.04
2022-08-05T02:49:02.046Z,22.03
2022-08-05T02:52:02.854Z,22.00
2022-08-05T02:54:34.360Z,21.96
2022-08-05T02:57:03.131Z,21.93
2022-08-05T02:59:34.585Z,21.89
2022-08-05T03:02:17.514Z,21.86
2022-08-05T03:04:45.105Z,21.85
2022-08-05T03:07:30.845Z,21.83
2022-08-05T03:09:59.597Z,21.81
2022-08-05T03:12:30.022Z,21.79
2022-08-05T03:14:57.865Z,21.79
2022-08-05T03:17:24.779Z,21.78
2022-08-05T03:19:51.732Z,21.77
2022-08-05T03:22:19.094Z,21.78
2022-08-05T03:25:11.723Z,21.77
2022-08-05T03:27:59.907Z,21.77
2022-08-05T03:30:33.626Z,21.76
2022-08-05T03:33:06.017Z,21.74
2022-08-05T03:35:40.474Z,21.76
2022-08-05T03:38:11.428Z,21.74
2022-08-05T03:40:45.152Z,21.74
2022-08-05T03:43:58.743Z,21.74
2022-08-05T03:46:02.173Z,21.74
2022-08-05T03:48:30.745Z,21.73
2022-08-05T03:52:37.444Z,21.68
2022-08-05T03:55:50.695Z,21.65
2022-08-05T03:57:28.946Z,21.66
2022-08-05T04:00:00.250Z,21.64
2022-08-05T04:02:38.548Z,21.60
2022-08-05T04:05:09.826Z,21.60
2022-08-05T04:07:57.269Z,21.59
2022-08-05T04:10:27.809Z,21.59
2022-08-05T04:12:55.488Z,21.57
2022-08-05T04:15:25.765Z,21.56
2022-08-05T04:17:59.901Z,21.53
2022-08-05T04:20:26.730Z,21.53
2022-08-05T04:22:53.327Z,21.51
2022-08-05T04:25:20.165Z,21.48
2022-08-05T04:28:12.792Z,21.46
2022-08-05T04:30:39.659Z,21.42
2022-08-05T04:33:06.320Z,21.38
2022-08-05T04:36:11.011Z,21.38
2022-08-05T04:38:20.894Z,21.39
2022-08-05T04:40:50.688Z,21.39
2022-08-05T04:43:17.769Z,21.39
2022-08-05T04:45:54.884Z,21.41
2022-08-05T04:48:27.407Z,21.42
2022-08-05T04:51:03.547Z,21.44
2022-08-05T04:53:38.649Z,21.43
2022-08-05T04:56:33.548Z,21.51
2022-08-05T04:58:56.691Z,21.51
2022-08-05T05:02:05.792Z,21.51
2022-08-05T05:04:10.074Z,21.51
2022-08-05T05:06:40.890Z,21.51
2022-08-05T05:09:17.594Z,21.50
2022-08-05T05:11:54.381Z,21.49
2022-08-05T05:14:27.909Z,21.48
2022-08-05T05:16:59.435Z,21.46
2022-08-05T05:19:27.539Z,21.45
2022-08-05T05:22:22.884Z,21.44
2022-08-05T05:24:59.025Z,21.43
2022-08-05T05:27:44.285Z,21.40
2022-08-05T05:30:29.433Z,21.40
2022-08-05T05:33:03.539Z,21.41
2022-08-05T05:35:42.593Z,21.41
2022-08-05T05:38:13.163Z,21.42
2022-08-05T05:40:49.645Z,21.43
2022-08-05T05:43:28.078Z,21.45
2022-08-05T05:46:08.493Z,21.46
2022-08-05T05:48:41.896Z,21.49
2022-08-05T05:51:15.788Z,21.48
2022-08-05T05:53:54.414Z,21.47
2022-08-05T05:56:32.369Z,21.45
2022-08-05T05:59:05.858Z,21.45
2022-08-05T06:01:39.757Z,21.44
2022-08-05T06:04:11.324Z,21.45
2022-08-05T06:06:46.628Z,21.46
2022-08-05T06:09:17.465Z,21.47
2022-08-05T06:12:01.958Z,21.48
2022-08-05T06:14:34.737Z,21.46
2022-08-05T06:17:22.419Z,21.48
2022-08-05T06:19:56.723Z,21.48
2022-08-05T06:22:33.902Z,21.45
2022-08-05T06:25:01.175Z,21.46
2022-08-05T06:28:09.175Z,21.45
2022-08-05T06:30:34.420Z,21.43
2022-08-05T06:33:01.519Z,21.41
2022-08-05T06:36:06.907Z,21.41
2022-08-05T06:38:15.134Z,21.43
2022-08-05T06:40:44.485Z,21.43
2022-08-05T06:43:58.580Z,21.42
2022-08-05T06:46:06.561Z,21.44
2022-08-05T06:48:53.285Z,21.42
2022-08-05T06:51:29.075Z,21.41
2022-08-05T06:53:59.768Z,21.41
2022-08-05T06:56:27.651Z,21.42
2022-08-05T06:58:55.276Z,21.43
2022-08-05T07:01:22.689Z,21.46
2022-08-05T07:03:49.854Z,21.50
2022-08-05T07:06:17.500Z,21.52
2022-08-05T07:08:51.758Z,21.55
2022-08-05T07:11:22.260Z,21.58
2022-08-05T07:14:08.240Z,21.62
2022-08-05T07:18:08.484Z,21.66
2022-08-05T07:22:28.646Z,21.73
2022-08-05T07:25:21.698Z,21.74
2022-08-05T07:27:56.535Z,21.78
2022-08-05T07:30:31.030Z,21.81
2022-08-05T07:32:59.899Z,21.81
2022-08-05T07:35:56.003Z,21.89
2022-08-05T07:38:32.421Z,21.87
2022-08-05T07:42:09.440Z,21.84
2022-08-05T07:43:52.830Z,21.82
2022-08-05T07:46:24.544Z,21.77
2022-08-05T07:49:01.797Z,21.72
2022-08-05T07:51:37.383Z,21.68
2022-08-05T07:54:08.382Z,21.66
2022-08-05T07:56:38.998Z,21.63
2022-08-05T07:59:31.069Z,21.63
2022-08-05T08:02:16.118Z,21.63
2022-08-05T08:04:48.971Z,21.61
2022-08-05T08:07:22.662Z,21.62
2022-08-05T08:09:52.495Z,21.61
2022-08-05T08:12:37.172Z,21.59
2022-08-05T08:15:14.147Z,21.56
2022-08-05T08:17:46.133Z,21.53
2022-08-05T08:20:43.476Z,21.50
2022-08-05T08:23:04.436Z,21.47
2022-08-05T08:26:00.015Z,21.44
2022-08-05T08:28:18.839Z,21.43
2022-08-05T08:31:04.497Z,21.43
2022-08-05T08:33:37.573Z,21.41
2022-08-05T08:38:56.020Z,21.41
2022-08-05T08:41:50.633Z,21.38
2022-08-05T08:45:20.945Z,21.37
2022-08-05T08:47:03.810Z,21.34
2022-08-05T08:50:12.970Z,21.34
2022-08-05T08:52:38.878Z,21.33
2022-08-05T08:55:11.124Z,21.32
2022-08-05T08:57:48.250Z,21.29
2022-08-05T09:00:25.198Z,21.26
2022-08-05T09:02:54.480Z,21.24
2022-08-05T09:05:38.950Z,21.22
2022-08-05T09:08:09.715Z,21.24
2022-08-05T09:10:36.613Z,21.25
2022-08-05T09:13:07.033Z,21.26
2022-08-05T09:15:37.099Z,21.25
2022-08-05T09:18:07.353Z,21.24
2022-08-05T09:20:38.038Z,21.24
2022-08-05T09:23:18.666Z,21.21
2022-08-05T09:26:03.838Z,21.24
2022-08-05T09:28:34.743Z,21.27
2022-08-05T09:31:23.483Z,21.27
2022-08-05T09:34:07.154Z,21.30
2022-08-05T09:36:55.897Z,21.35
2022-08-05T09:39:27.567Z,21.43
2022-08-05T09:42:08.567Z,21.52
2022-08-05T09:44:46.023Z,21.61
2022-08-05T09:47:36.383Z,21.67
2022-08-05T09:50:18.090Z,21.80
2022-08-05T09:53:00.428Z,21.89
2022-08-05T09:55:57.652Z,21.96
2022-08-05T09:58:15.866Z,22.02
2022-08-05T10:00:54.952Z,22.03
2022-08-05T10:03:21.916Z,22.09
2022-08-05T10:06:04.782Z,22.06
2022-08-05T10:08:38.135Z,22.11
2022-08-05T10:11:16.304Z,22.08
2022-08-05T10:13:45.732Z,22.16
2022-08-05T10:16:37.729Z,22.17
2022-08-05T10:19:10.138Z,22.26
2022-08-05T10:21:40.915Z,22.30
2022-08-05T10:24:13.753Z,22.31
2022-08-05T10:26:51.637Z,22.36
2022-08-05T10:29:24.064Z,22.41
2022-08-05T10:33:00.862Z,22.48
2022-08-05T10:35:01.159Z,22.55
2022-08-05T10:37:37.258Z,22.60
2022-08-05T10:40:34.885Z,22.64
2022-08-05T10:43:35.663Z,22.77
2022-08-05T10:46:08.327Z,22.92
2022-08-05T10:48:56.967Z,23.07
2022-08-05T10:51:28.436Z,23.27
2022-08-05T10:53:58.531Z,23.46
2022-08-05T10:56:44.137Z,23.65
2022-08-05T11:00:02.060Z,23.88
2022-08-05T11:02:14.569Z,24.01
2022-08-05T11:04:59.617Z,24.19
2022-08-05T11:07:33.039Z,24.27
2022-08-05T11:10:27.496Z,24.36
2022-08-05T11:12:57.414Z,24.56
2022-08-05T11:16:00.708Z,24.72
2022-08-05T11:18:32.523Z,24.89
2022-08-05T11:21:02.903Z,25.03
2022-08-05T11:24:04.264Z,25.09
2022-08-05T11:26:38.220Z,25.17
2022-08-05T11:29:13.265Z,25.17
2022-08-05T11:31:58.023Z,25.19
2022-08-05T11:34:39.103Z,25.18
2022-08-05T11:38:28.002Z,25.29
2022-08-05T11:40:00.700Z,25.42
2022-08-05T11:42:40.265Z,25.56
2022-08-05T11:45:26.760Z,25.72
2022-08-05T11:47:55.241Z,25.99
2022-08-05T11:50:22.756Z,26.31
2022-08-05T11:52:54.428Z,26.68
2022-08-05T11:55:32.326Z,27.10
2022-08-05T11:58:10.861Z,27.43
2022-08-05T12:00:44.490Z,27.67
2022-08-05T12:03:28.429Z,27.91
2022-08-05T12:06:06.009Z,28.15
2022-08-05T12:09:04.656Z,28.42
2022-08-05T12:11:40.357Z,28.60
2022-08-05T12:14:12.934Z,28.58
2022-08-05T12:16:45.109Z,28.44
2022-08-05T12:20:26.400Z,28.20
2022-08-05T12:22:03.014Z,27.87
2022-08-05T12:24:32.287Z,27.54
2022-08-05T12:27:09.954Z,27.22
2022-08-05T12:30:08.903Z,26.83
2022-08-05T12:32:44.537Z,26.59
2022-08-05T12:35:21.863Z,26.32
2022-08-05T12:37:49.365Z,26.10
2022-08-05T12:40:26.771Z,25.93
2022-08-05T12:42:56.004Z,25.80
2022-08-05T12:45:22.725Z,25.71
2022-08-05T12:48:27.190Z,25.67
2022-08-05T12:52:10.192Z,25.69
2022-08-05T12:54:04.588Z,25.78
2022-08-05T12:56:45.136Z,25.81
2022-08-05T13:00:08.654Z,25.77
2022-08-05T13:02:30.778Z,25.80
2022-08-05T13:04:57.737Z,26.00
2022-08-05T13:07:57.638Z,26.37
2022-08-05T13:10:14.928Z,26.92
2022-08-05T13:12:51.065Z,27.39
2022-08-05T13:15:41.414Z,27.72
2022-08-05T13:18:20.010Z,27.89
2022-08-05T13:20:48.951Z,27.86
2022-08-05T13:23:22.156Z,27.70
2022-08-05T13:25:51.805Z,27.48
2022-08-05T13:28:27.030Z,27.23
2022-08-05T13:30:53.789Z,26.98
2022-08-05T13:34:22.157Z,26.78
2022-08-05T13:36:09.211Z,26.67
2022-08-05T13:38:38.556Z,26.67
2022-08-05T13:41:08.816Z,26.85
2022-08-05T13:43:44.916Z,27.23
2022-08-05T13:47:01.697Z,27.81
2022-08-05T13:49:11.510Z,28.49
2022-08-05T13:51:41.162Z,29.05
2022-08-05T13:54:12.710Z,29.46
2022-08-05T13:56:44.947Z,29.71
2022-08-05T13:59:27.451Z,29.90
2022-08-05T14:02:00.090Z,30.12
2022-08-05T14:04:49.542Z,30.25
2022-08-05T14:07:55.400Z,30.32
2022-08-05T14:10:08.482Z,30.40
2022-08-05T14:12:35.641Z,30.59
2022-08-05T14:15:06.012Z,30.84
2022-08-05T14:17:49.057Z,31.09
2022-08-05T14:20:18.349Z,31.16
2022-08-05T14:22:50.197Z,31.12
2022-08-05T14:25:21.586Z,30.93
2022-08-05T14:27:50.931Z,30.69
2022-08-05T14:30:20.927Z,30.60
2022-08-05T14:32:48.907Z,30.69
2022-08-05T14:35:16.339Z,30.99
2022-08-05T14:37:52.172Z,31.37
2022-08-05T14:40:24.430Z,31.84
2022-08-05T14:42:51.623Z,32.22
2022-08-05T14:45:18.853Z,32.52
2022-08-05T14:48:04.205Z,32.73
2022-08-05T14:50:32.662Z,32.99
2022-08-05T14:53:00.273Z,33.20
2022-08-05T14:55:38.443Z,33.29
2022-08-05T14:58:11.847Z,33.32
2022-08-05T15:00:59.431Z,33.40
2022-08-05T15:03:33.746Z,33.59
2022-08-05T15:06:07.772Z,33.83
2022-08-05T15:09:01.264Z,34.05
2022-08-05T15:11:51.148Z,34.28
2022-08-05T15:14:33.359Z,34.51
2022-08-05T15:17:01.638Z,34.77
2022-08-05T15:19:30.759Z,35.00
2022-08-05T15:21:57.991Z,35.19
2022-08-05T15:24:27.630Z,35.37
2022-08-05T15:26:55.800Z,35.52
2022-08-05T15:32:03.347Z,35.78
2022-08-05T15:34:34.073Z,35.84
2022-08-05T15:37:06.876Z,35.74
2022-08-05T15:41:00.283Z,35.53
2022-08-05T15:42:50.065Z,35.21
2022-08-05T15:45:15.442Z,34.96
2022-08-05T15:47:43.295Z,34.74
2022-08-05T15:50:15.352Z,34.46
2022-08-05T15:52:53.738Z,34.20
2022-08-05T15:55:25.094Z,33.98
2022-08-05T15:58:08.497Z,33.78
2022-08-05T16:00:56.987Z,33.61
2022-08-05T16:03:21.570Z,33.53
2022-08-05T16:05:52.444Z,33.51
2022-08-05T16:08:19.320Z,33.52
2022-08-05T16:10:45.907Z,33.50
2022-08-05T16:13:12.607Z,33.51
2022-08-05T16:15:51.813Z,33.52
2022-08-05T16:18:18.810Z,33.55
2022-08-05T16:20:46.428Z,33.55
2022-08-05T16:23:13.114Z,33.51
2022-08-05T16:25:40.113Z,33.50
2022-08-05T16:28:09.803Z,33.51
2022-08-05T16:30:37.090Z,33.52
2022-08-05T16:33:03.706Z,33.52
2022-08-05T16:35:32.163Z,33.46
2022-08-05T16:38:15.953Z,33.29
2022-08-05T16:40:47.643Z,32.95
2022-08-05T16:43:18.900Z,32.57
2022-08-05T16:46:07.434Z,32.21
2022-08-05T16:48:35.073Z,31.83
2022-08-05T16:51:02.467Z,31.48
2022-08-05T16:54:04.050Z,31.10
2022-08-05T16:56:22.066Z,30.68
2022-08-05T16:58:49.944Z,30.32
2022-08-05T17:01:16.760Z,29.98
2022-08-05T17:03:45.497Z,29.67
2022-08-05T17:06:12.163Z,29.37
2022-08-05T17:08:52.817Z,29.07
2022-08-05T17:11:25.311Z,28.73
2022-08-05T17:14:05.672Z,28.41
2022-08-05T17:16:35.956Z,28.08
2022-08-05T17:19:07.503Z,27.84
2022-08-05T17:21:37.325Z,27.59
2022-08-05T17:24:31.236Z,27.35
2022-08-05T17:26:58.686Z,27.17
2022-08-05T17:29:33.959Z,26.99
2022-08-05T17:32:11.294Z,26.78
2022-08-05T17:34:38.269Z,26.61
2022-08-05T17:37:35.863Z,26.44
2022-08-05T17:39:55.116Z,26.25
2022-08-05T17:42:27.023Z,26.08
2022-08-05T17:44:56.311Z,25.94
2022-08-05T17:47:23.749Z,25.79
2022-08-05T17:49:59.516Z,25.63
2022-08-05T17:52:30.453Z,25.47
2022-08-05T17:54:57.866Z,25.30
2022-08-05T17:57:24.678Z,25.14
2022-08-05T18:00:03.470Z,24.98
2022-08-05T18:02:31.869Z,24.84
2022-08-05T18:04:58.721Z,24.73
2022-08-05T18:07:25.450Z,24.63
2022-08-05T18:10:08.705Z,24.56
2022-08-05T18:12:37.310Z,24.51
2022-08-05T18:15:04.757Z,24.48
2022-08-05T18:17:59.677Z,24.44
2022-08-05T18:20:29.555Z,24.41
2022-08-05T18:23:00.735Z,24.36
2022-08-05T18:25:36.927Z,24.30
2022-08-05T18:28:06.646Z,24.23
2022-08-05T18:30:34.439Z,24.15
2022-08-05T18:33:01.764Z,24.07
2022-08-05T18:36:01.234Z,24.02
2022-08-05T18:38:19.338Z,23.95
2022-08-05T18:41:53.757Z,23.89
2022-08-05T18:43:43.024Z,23.81
2022-08-05T18:46:15.958Z,23.74
2022-08-05T18:48:47.172Z,23.67
2022-08-05T18:52:06.652Z,23.58
2022-08-05T18:54:19.557Z,23.49
2022-08-05T18:56:51.164Z,23.39
2022-08-05T18:59:42.908Z,23.33
2022-08-05T19:02:26.326Z,23.24
2022-08-05T19:05:01.595Z,23.14
2022-08-05T19:07:46.150Z,23.04
2022-08-05T19:10:17.365Z,22.95
2022-08-05T19:12:46.110Z,22.87
2022-08-05T19:15:57.983Z,22.78
2022-08-05T19:18:10.080Z,22.71
2022-08-05T19:20:41.708Z,22.65
2022-08-05T19:24:04.119Z,22.59
2022-08-05T19:26:03.223Z,22.51
2022-08-05T19:28:34.731Z,22.44
2022-08-05T19:31:01.462Z,22.38
2022-08-05T19:33:35.789Z,22.31
2022-08-05T19:36:06.893Z,22.23
2022-08-05T19:38:36.824Z,22.13
2022-08-05T19:41:09.164Z,22.06
2022-08-05T19:44:06.700Z,21.99
2022-08-05T19:46:29.951Z,21.92
2022-08-05T19:49:01.104Z,21.85
2022-08-05T19:52:08.390Z,21.79
2022-08-05T19:54:21.994Z,21.73
2022-08-05T19:57:09.322Z,21.66
2022-08-05T20:00:00.766Z,21.63
2022-08-05T20:02:24.076Z,21.57
2022-08-05T20:04:52.994Z,21.53
2022-08-05T20:07:46.744Z,21.47
2022-08-05T20:10:13.135Z,21.40
2022-08-05T20:12:47.910Z,21.33
2022-08-05T20:15:48.907Z,21.27
2022-08-05T20:18:04.445Z,21.20
2022-08-05T20:20:38.029Z,21.15
2022-08-05T20:23:05.302Z,21.09
2022-08-05T20:25:33.716Z,21.03
2022-08-05T20:28:14.671Z,20.94
2022-08-05T20:30:41.657Z,20.89
2022-08-05T20:33:08.790Z,20.83
2022-08-05T20:35:40.564Z,20.75
2022-08-05T20:38:12.033Z,20.69
2022-08-05T20:40:47.658Z,20.65
2022-08-05T20:43:17.437Z,20.58
2022-08-05T20:46:03.988Z,20.54
2022-08-05T20:48:30.549Z,20.50
2022-08-05T20:50:57.078Z,20.46
2022-08-05T20:53:36.936Z,20.41
2022-08-05T20:56:09.695Z,20.37
2022-08-05T20:58:36.966Z,20.32
2022-08-05T21:01:04.566Z,20.28
2022-08-05T21:03:34.737Z,20.24
2022-08-05T21:06:01.982Z,20.19
2022-08-05T21:08:41.898Z,20.12
2022-08-05T21:12:06.987Z,20.06
2022-08-05T21:14:00.264Z,20.05
2022-08-05T21:16:30.466Z,20.01
2022-08-05T21:19:01.560Z,19.96
2022-08-05T21:21:39.764Z,19.92
2022-08-05T21:24:16.564Z,19.88
2022-08-05T21:26:53.699Z,19.85
2022-08-05T21:29:32.163Z,19.81
2022-08-05T21:31:59.866Z,19.77
2022-08-05T21:34:28.293Z,19.73
2022-08-05T21:36:58.206Z,19.69
2022-08-05T21:39:26.696Z,19.63
2022-08-05T21:42:01.653Z,19.59
2022-08-05T21:44:30.435Z,19.55
2022-08-05T21:46:58.256Z,19.51
2022-08-05T21:49:56.570Z,19.46
2022-08-05T21:52:23.053Z,19.44
2022-08-05T21:54:56.184Z,19.39
2022-08-05T21:57:31.435Z,19.36
2022-08-05T22:00:04.937Z,19.33
2022-08-05T22:02:33.377Z,19.29
2022-08-05T22:05:00.225Z,19.26
2022-08-05T22:07:40.053Z,19.21
2022-08-05T22:10:15.118Z,19.17
2022-08-05T22:12:44.721Z,19.14
2022-08-05T22:15:16.660Z,19.10
2022-08-05T22:18:00.726Z,19.06
2022-08-05T22:20:27.408Z,19.02
2022-08-05T22:23:17.135Z,18.98
2022-08-05T22:26:11.398Z,18.94
2022-08-05T22:28:38.794Z,18.89
2022-08-05T22:31:06.233Z,18.85
2022-08-05T22:33:56.788Z,18.79
2022-08-05T22:36:24.181Z,18.74
2022-08-05T22:38:51.690Z,18.68
2022-08-05T22:42:04.446Z,18.65
2022-08-05T22:44:08.437Z,18.61
2022-08-05T22:46:40.004Z,18.58
2022-08-05T22:49:23.070Z,18.54
2022-08-05T22:52:06.445Z,18.53
2022-08-05T22:54:35.066Z,18.52
2022-08-05T22:57:01.719Z,18.50
2022-08-05T22:59:44.157Z,18.48
2022-08-05T23:02:28.882Z,18.47
2022-08-05T23:05:01.779Z,18.46
2022-08-05T23:07:31.594Z,18.45
2022-08-05T23:10:01.451Z,18.41
2022-08-05T23:12:32.962Z,18.40
2022-08-05T23:15:08.514Z,18.37
2022-08-05T23:17:59.739Z,18.34
2022-08-05T23:20:23.580Z,18.31
2022-08-05T23:22:54.213Z,18.28
2022-08-05T23:25:51.408Z,18.26
2022-08-05T23:28:09.126Z,18.23
2022-08-05T23:30:39.737Z,18.20
2022-08-05T23:33:16.289Z,18.16
2022-08-05T23:35:50.508Z,18.12
2022-08-05T23:38:17.442Z,18.09
2022-08-05T23:40:49.809Z,18.04
2022-08-05T23:43:25.667Z,18.01
2022-08-05T23:46:20.277Z,17.98
2022-08-05T23:49:01.143Z,17.96
2022-08-05T23:51:53.674Z,17.91
2022-08-05T23:54:29.864Z,17.87
2022-08-05T23:57:03.750Z,17.84
2022-08-05T23:59:37.683Z,17.80
